Time;durP1;ratioP1;P1;durP2;ratioP2;P2;SDS_P1;SDS_P2;PMS_P1;PMS_P2;Temp;Humidity;BMP_temperature;BMP_pressure;BME280_temperature;BME280_humidity;BME280_pressure;Samples;Min_cycle;Max_cycle;Signal;HPM_P1;HPM_P2
2023/10/13 00:00:43;;;;;;;19.00;8.77;;;16.30;99.90;;;;;;5065063;28;20228;-60
2023/10/13 00:03:15;;;;;;;18.25;9.20;;;16.30;99.90;;;;;;5065228;28;20697;-60
2023/10/13 00:05:44;;;;;;;19.42;10.30;;;16.30;99.90;;;;;;5058095;28;20209;-60
2023/10/13 00:08:13;;;;;;;19.55;9.25;;;16.20;99.90;;;;;;5067842;28;20205;-59
2023/10/13 00:10:41;;;;;;;16.52;8.70;;;16.20;99.90;;;;;;5068466;28;20236;-60
2023/10/13 00:13:12;;;;;;;20.63;9.93;;;16.30;99.90;;;;;;5064976;28;20206;-60
2023/10/13 00:15:46;;;;;;;20.27;9.48;;;16.20;99.90;;;;;;5056961;28;20201;-60
2023/10/13 00:18:15;;;;;;;17.58;8.38;;;16.20;99.90;;;;;;5072981;28;20228;-60
2023/10/13 00:20:49;;;;;;;25.27;9.30;;;16.30;99.90;;;;;;5068618;28;20283;-60
2023/10/13 00:23:20;;;;;;;14.50;8.63;;;16.30;99.90;;;;;;5055257;28;20202;-61
2023/10/13 00:25:56;;;;;;;19.20;8.15;;;16.30;99.90;;;;;;5066227;28;20224;-60
2023/10/13 00:28:25;;;;;;;29.38;9.73;;;16.30;99.90;;;;;;5064070;28;20204;-60
2023/10/13 00:30:59;;;;;;;18.60;9.20;;;16.30;99.90;;;;;;5057274;28;20229;-60
2023/10/13 00:33:31;;;;;;;27.55;8.90;;;16.30;99.90;;;;;;5069057;28;20215;-60
2023/10/13 00:36:01;;;;;;;23.92;9.38;;;16.30;99.90;;;;;;5069710;28;20205;-61
2023/10/13 00:38:29;;;;;;;19.35;8.55;;;16.20;99.90;;;;;;5061818;28;20229;-60
2023/10/13 00:41:03;;;;;;;22.17;9.05;;;16.30;99.90;;;;;;5061077;28;20222;-60
2023/10/13 00:43:37;;;;;;;21.17;10.27;;;16.20;99.90;;;;;;5056163;28;20658;-60
2023/10/13 00:46:07;;;;;;;18.88;9.32;;;16.20;99.90;;;;;;5063166;28;20200;-61
2023/10/13 00:48:51;;;;;;;17.55;9.50;;;16.20;99.90;;;;;;5063916;28;20206;-60
2023/10/13 00:51:22;;;;;;;18.10;8.73;;;16.20;99.90;;;;;;5064673;28;20245;-61
2023/10/13 00:53:50;;;;;;;17.27;8.75;;;16.20;99.90;;;;;;5066983;28;20293;-60
2023/10/13 00:56:21;;;;;;;18.92;8.65;;;16.30;99.90;;;;;;5068904;28;20760;-60
2023/10/13 00:58:52;;;;;;;18.60;9.30;;;16.20;99.90;;;;;;5071569;28;20596;-60
2023/10/13 01:01:21;;;;;;;19.77;9.65;;;16.20;99.90;;;;;;5063546;28;20220;-60
2023/10/13 01:03:55;;;;;;;17.40;9.35;;;16.20;99.90;;;;;;5070179;28;20197;-60
2023/10/13 01:06:27;;;;;;;25.50;9.40;;;16.20;99.90;;;;;;5071412;28;20209;-60
2023/10/13 01:08:59;;;;;;;20.60;9.02;;;16.20;99.90;;;;;;5062718;28;20281;-59
2023/10/13 01:11:29;;;;;;;17.90;9.10;;;16.20;99.90;;;;;;5062966;28;20224;-60
2023/10/13 01:13:57;;;;;;;16.38;9.48;;;16.30;99.90;;;;;;5070109;28;20277;-60
2023/10/13 01:16:26;;;;;;;20.85;9.30;;;16.20;99.90;;;;;;5059961;28;20237;-60
2023/10/13 01:18:59;;;;;;;20.83;9.23;;;16.20;99.90;;;;;;5069771;28;20235;-61
2023/10/13 01:21:27;;;;;;;16.33;9.55;;;16.20;99.90;;;;;;5071973;28;20232;-61
2023/10/13 01:23:56;;;;;;;16.15;8.55;;;16.30;99.90;;;;;;5065656;28;20727;-60
2023/10/13 01:26:24;;;;;;;21.27;9.35;;;16.20;99.90;;;;;;5070465;28;20307;-61
2023/10/13 01:28:54;;;;;;;22.50;9.15;;;16.20;99.90;;;;;;5071302;28;20558;-60
2023/10/13 01:31:30;;;;;;;25.20;9.90;;;16.20;99.90;;;;;;5068762;28;20718;-60
2023/10/13 01:33:59;;;;;;;23.60;9.48;;;16.20;99.90;;;;;;5068348;28;20208;-60
2023/10/13 01:36:26;;;;;;;12.95;8.55;;;16.20;99.90;;;;;;5071310;28;20752;-60
2023/10/13 01:38:56;;;;;;;24.02;9.43;;;16.20;99.90;;;;;;5071104;28;20260;-60
2023/10/13 01:41:23;;;;;;;22.38;9.00;;;16.20;99.90;;;;;;5065686;28;21019;-60
2023/10/13 01:43:50;;;;;;;18.67;9.55;;;16.20;99.90;;;;;;5071237;28;20587;-60
2023/10/13 01:46:21;;;;;;;21.42;9.05;;;16.20;99.90;;;;;;5070497;28;20231;-60
2023/10/13 01:48:54;;;;;;;20.10;9.85;;;16.20;99.90;;;;;;5070900;28;20208;-61
2023/10/13 01:51:23;;;;;;;17.42;8.93;;;16.20;99.90;;;;;;5070611;28;20286;-60
2023/10/13 01:53:56;;;;;;;16.92;8.60;;;16.20;99.90;;;;;;5071055;28;20232;-60
2023/10/13 01:56:25;;;;;;;18.48;9.73;;;16.20;99.90;;;;;;5070849;28;20220;-60
2023/10/13 01:58:53;;;;;;;20.38;9.70;;;16.20;99.90;;;;;;5070481;28;20313;-60
2023/10/13 02:01:26;;;;;;;16.33;8.77;;;16.20;99.90;;;;;;5069850;28;20604;-60
2023/10/13 02:04:03;;;;;;;17.30;9.10;;;16.20;99.90;;;;;;5070094;28;20209;-60
2023/10/13 02:06:33;;;;;;;19.80;9.02;;;16.20;99.90;;;;;;5070733;28;20205;-60
2023/10/13 02:09:10;;;;;;;17.63;9.30;;;16.20;99.90;;;;;;5070991;28;20208;-60
2023/10/13 02:11:39;;;;;;;19.02;9.85;;;16.20;99.90;;;;;;5063681;28;20288;-60
2023/10/13 02:14:07;;;;;;;21.70;8.65;;;16.20;99.90;;;;;;5062557;28;20331;-60
2023/10/13 02:16:36;;;;;;;20.13;10.18;;;16.20;99.90;;;;;;5060796;28;20205;-60
2023/10/13 02:19:04;;;;;;;19.33;8.93;;;16.20;99.90;;;;;;5065156;28;20248;-61
2023/10/13 02:21:31;;;;;;;17.30;9.13;;;16.30;99.90;;;;;;5062578;28;20201;-60
2023/10/13 02:24:03;;;;;;;14.73;8.65;;;16.20;99.90;;;;;;5068648;28;20204;-60
2023/10/13 02:26:32;;;;;;;20.15;8.98;;;16.30;99.90;;;;;;5070272;28;20208;-60
2023/10/13 02:29:04;;;;;;;17.73;8.93;;;16.20;99.90;;;;;;5070394;28;20353;-60
2023/10/13 02:31:31;;;;;;;16.38;9.32;;;16.20;99.90;;;;;;5069595;28;20267;-60
2023/10/13 02:34:00;;;;;;;15.23;9.25;;;16.20;99.90;;;;;;5065988;28;20804;-59
2023/10/13 02:36:36;;;;;;;22.02;9.25;;;16.30;99.90;;;;;;5069981;28;20208;-60
2023/10/13 02:39:07;;;;;;;21.77;9.02;;;16.20;99.90;;;;;;5066911;28;20398;-59
2023/10/13 02:41:36;;;;;;;15.65;9.20;;;16.20;99.90;;;;;;5069955;28;20232;-60
2023/10/13 02:44:07;;;;;;;20.85;9.57;;;16.20;99.90;;;;;;5069306;28;20717;-59
2023/10/13 02:46:36;;;;;;;21.30;9.57;;;16.20;99.90;;;;;;5067456;28;20205;-59
2023/10/13 02:49:10;;;;;;;18.60;9.20;;;16.20;99.90;;;;;;5069350;28;20213;-59
2023/10/13 02:51:41;;;;;;;13.45;8.38;;;16.20;99.90;;;;;;5070053;28;20218;-59
2023/10/13 02:54:10;;;;;;;15.48;8.63;;;16.20;99.90;;;;;;5070740;28;20299;-60
2023/10/13 02:56:37;;;;;;;19.20;9.30;;;16.10;99.90;;;;;;5069491;28;20209;-59
2023/10/13 02:59:07;;;;;;;17.67;8.77;;;16.10;99.90;;;;;;5064725;28;20330;-59
2023/10/13 03:01:34;;;;;;;17.75;9.23;;;16.10;99.90;;;;;;5070126;28;20606;-60
2023/10/13 03:04:03;;;;;;;19.80;10.18;;;16.10;99.90;;;;;;5070464;28;20232;-59
2023/10/13 03:06:33;;;;;;;18.02;10.60;;;16.10;99.90;;;;;;5070453;28;20265;-59
2023/10/13 03:09:14;;;;;;;13.77;9.40;;;16.10;99.90;;;;;;5072084;28;20204;-60
2023/10/13 03:11:42;;;;;;;17.63;9.70;;;16.10;99.90;;;;;;5074283;28;20262;-59
2023/10/13 03:14:23;;;;;;;16.38;9.90;;;16.10;99.90;;;;;;5074563;28;20236;-59
2023/10/13 03:16:52;;;;;;;23.02;10.50;;;16.10;99.90;;;;;;5074197;28;20212;-60
2023/10/13 03:19:20;;;;;;;20.50;10.13;;;16.10;99.90;;;;;;5072033;28;20232;-59
2023/10/13 03:21:54;;;;;;;21.58;11.35;;;16.10;99.90;;;;;;5069089;28;20201;-60
2023/10/13 03:24:33;;;;;;;18.40;10.05;;;16.10;99.90;;;;;;5063817;28;20707;-60
2023/10/13 03:27:07;;;;;;;21.60;11.13;;;16.10;99.90;;;;;;5071247;28;20200;-59
2023/10/13 03:29:38;;;;;;;18.63;10.95;;;16.10;99.90;;;;;;5072349;28;20242;-59
2023/10/13 03:32:11;;;;;;;19.92;10.73;;;16.10;99.90;;;;;;5071225;28;20209;-59
2023/10/13 03:34:49;;;;;;;18.83;10.27;;;16.10;99.90;;;;;;5072987;28;20209;-59
2023/10/13 03:37:37;;;;;;;20.70;9.85;;;16.00;99.90;;;;;;5072984;28;20227;-59
2023/10/13 03:40:33;;;;;;;20.70;9.02;;;16.00;99.90;;;;;;5068151;28;20225;-59
2023/10/13 03:43:04;;;;;;;18.52;9.85;;;16.00;99.90;;;;;;5071920;28;20685;-60
2023/10/13 03:45:37;;;;;;;20.40;10.73;;;16.00;99.90;;;;;;5072708;28;20239;-59
2023/10/13 03:48:08;;;;;;;17.20;9.68;;;16.00;99.90;;;;;;5063756;28;20202;-59
2023/10/13 03:50:37;;;;;;;19.15;10.52;;;16.00;99.90;;;;;;5070464;28;20220;-59
2023/10/13 03:53:08;;;;;;;22.08;10.55;;;16.00;99.90;;;;;;5068271;28;20237;-60
2023/10/13 03:55:36;;;;;;;23.77;11.68;;;16.00;99.90;;;;;;5071686;28;20211;-59
2023/10/13 03:58:04;;;;;;;22.65;11.32;;;16.00;99.90;;;;;;5073612;28;20197;-60
2023/10/13 04:00:35;;;;;;;18.55;10.95;;;16.00;99.90;;;;;;5072662;28;20267;-60
2023/10/13 04:03:09;;;;;;;19.42;10.55;;;16.00;99.90;;;;;;5067169;28;20244;-59
2023/10/13 04:05:40;;;;;;;21.75;10.45;;;15.90;99.90;;;;;;5073417;28;20215;-60
2023/10/13 04:16:37;;;;;;;21.70;10.30;;;15.90;99.90;;;;;;5072902;28;20240;-60
2023/10/13 04:19:19;;;;;;;20.73;10.32;;;15.90;99.90;;;;;;5063052;28;20733;-59
2023/10/13 04:21:59;;;;;;;20.30;11.57;;;15.90;99.90;;;;;;5071850;28;20200;-60
2023/10/13 04:27:44;;;;;;;19.73;10.70;;;15.90;99.90;;;;;;5026770;28;20210;-59
2023/10/13 04:30:19;;;;;;;21.70;11.65;;;15.90;99.90;;;;;;5065494;28;20221;-58
2023/10/13 04:33:06;;;;;;;22.85;10.82;;;15.90;99.90;;;;;;5072740;28;20204;-59
2023/10/13 04:35:37;;;;;;;18.25;10.55;;;15.90;99.90;;;;;;5066022;28;20219;-60
2023/10/13 04:38:19;;;;;;;20.35;11.20;;;15.90;99.90;;;;;;5058291;28;20286;-59
2023/10/13 04:40:58;;;;;;;24.20;11.88;;;15.90;99.90;;;;;;5064447;28;20869;-59
2023/10/13 04:43:55;;;;;;;15.50;10.60;;;15.90;99.90;;;;;;5066499;28;20204;-60
2023/10/13 04:46:35;;;;;;;15.70;10.65;;;15.90;99.90;;;;;;5067000;28;20205;-60
2023/10/13 04:49:26;;;;;;;20.95;11.70;;;15.90;99.90;;;;;;5073039;28;20223;-60
2023/10/13 04:52:00;;;;;;;15.32;10.50;;;15.90;99.90;;;;;;5064463;28;20204;-58
2023/10/13 04:54:33;;;;;;;18.42;10.90;;;15.90;99.90;;;;;;5070124;28;20205;-60
2023/10/13 05:47:01;;;;;;;19.75;10.13;;;15.80;99.90;;;;;;5037499;28;20202;-74
2023/10/13 05:50:04;;;;;;;23.77;9.82;;;15.80;99.90;;;;;;5025863;28;20297;-75
2023/10/13 06:30:10;;;;;;;20.98;10.63;;;16.00;99.90;;;;;;5036824;28;20207;-74
2023/10/13 06:32:46;;;;;;;19.67;10.30;;;16.00;99.90;;;;;;5036557;28;20641;-74
2023/10/13 06:35:28;;;;;;;18.40;9.85;;;16.10;99.90;;;;;;5020307;28;20253;-74
2023/10/13 06:38:01;;;;;;;18.33;10.75;;;16.10;99.90;;;;;;5028768;28;20270;-74
2023/10/13 06:40:34;;;;;;;15.70;9.85;;;16.10;99.90;;;;;;5036757;28;20229;-74
2023/10/13 06:43:21;;;;;;;16.58;10.32;;;16.10;99.90;;;;;;5027851;28;20209;-74
2023/10/13 06:46:00;;;;;;;21.63;10.52;;;16.20;99.90;;;;;;5017195;28;20268;-74
2023/10/13 06:48:34;;;;;;;16.05;10.00;;;16.20;99.90;;;;;;5036091;28;20663;-74
2023/10/13 06:51:17;;;;;;;20.45;11.15;;;16.30;99.90;;;;;;5019017;28;20222;-75
2023/10/13 06:53:48;;;;;;;21.92;10.95;;;16.40;99.90;;;;;;5036048;28;20329;-75
2023/10/13 06:56:22;;;;;;;23.20;10.90;;;16.30;99.90;;;;;;5036525;28;20660;-74
2023/10/13 06:58:59;;;;;;;28.00;10.35;;;16.30;99.90;;;;;;5036822;28;20202;-75
2023/10/13 07:01:38;;;;;;;16.75;9.85;;;16.40;99.90;;;;;;5036740;28;20714;-74
2023/10/13 07:04:13;;;;;;;22.75;10.45;;;16.50;99.90;;;;;;5029717;28;20284;-75
2023/10/13 07:06:49;;;;;;;18.52;10.20;;;16.50;99.90;;;;;;5036691;28;20668;-74
2023/10/13 07:12:06;;;;;;;17.65;10.40;;;16.60;99.90;;;;;;5011438;28;20346;-75
2023/10/13 07:14:37;;;;;;;26.95;10.18;;;16.60;99.90;;;;;;5027235;28;20230;-74
2023/10/13 07:17:13;;;;;;;18.38;10.70;;;16.60;99.90;;;;;;5028169;28;20711;-75
2023/10/13 07:19:53;;;;;;;19.35;10.50;;;16.70;99.90;;;;;;5033926;28;20245;-75
2023/10/13 07:22:23;;;;;;;23.95;9.90;;;16.70;99.90;;;;;;5029581;28;20227;-75
2023/10/13 07:24:53;;;;;;;15.98;9.20;;;16.80;99.90;;;;;;5024691;28;20325;-75
2023/10/13 07:27:24;;;;;;;21.27;10.02;;;16.80;99.90;;;;;;5030120;28;20206;-75
2023/10/13 07:30:06;;;;;;;20.10;10.32;;;16.90;99.90;;;;;;5036525;28;20218;-75
2023/10/13 07:32:44;;;;;;;22.60;10.05;;;17.00;99.90;;;;;;5036016;28;20232;-75
2023/10/13 07:35:17;;;;;;;22.60;10.27;;;17.00;99.90;;;;;;5019812;28;20241;-75
2023/10/13 07:37:48;;;;;;;23.52;10.05;;;17.00;99.90;;;;;;5036021;28;20210;-75
2023/10/13 07:40:39;;;;;;;19.25;9.77;;;17.00;99.90;;;;;;5035943;28;20202;-75
2023/10/13 07:43:12;;;;;;;23.63;9.95;;;17.10;99.90;;;;;;5035868;28;20209;-75
2023/10/13 07:45:44;;;;;;;23.63;9.88;;;17.20;99.90;;;;;;5035254;28;20237;-75
2023/10/13 07:48:20;;;;;;;14.65;8.80;;;17.20;99.90;;;;;;5026715;28;20652;-75
2023/10/13 07:50:49;;;;;;;18.02;8.77;;;17.30;99.90;;;;;;5035713;28;20274;-75
2023/10/13 07:53:24;;;;;;;15.38;8.25;;;17.30;99.90;;;;;;5034342;28;20637;-74
2023/10/13 07:55:56;;;;;;;20.48;9.20;;;17.40;99.90;;;;;;5028528;28;20233;-75
2023/10/13 07:58:33;;;;;;;15.15;9.32;;;17.40;99.90;;;;;;5039324;28;20218;-75
2023/10/13 08:01:08;;;;;;;21.90;9.25;;;17.50;99.90;;;;;;5029846;28;20847;-75
2023/10/13 08:03:44;;;;;;;21.63;9.43;;;17.50;99.90;;;;;;5039632;28;20214;-75
2023/10/13 08:06:25;;;;;;;20.77;9.50;;;17.60;99.90;;;;;;5032698;28;20202;-75
2023/10/13 08:08:59;;;;;;;24.35;9.70;;;17.60;99.90;;;;;;5038815;28;20214;-75
2023/10/13 08:14:29;;;;;;;20.25;9.88;;;17.70;99.90;;;;;;5042702;28;20225;-74
2023/10/13 08:17:10;;;;;;;21.08;9.48;;;17.70;99.90;;;;;;5037980;28;20233;-75
2023/10/13 08:19:46;;;;;;;19.50;9.68;;;17.70;99.90;;;;;;5042104;28;20233;-75
2023/10/13 08:22:35;;;;;;;16.15;9.45;;;17.80;99.90;;;;;;5040628;28;20218;-74
2023/10/13 08:25:52;;;;;;;21.40;9.57;;;17.90;99.90;;;;;;5032533;28;20252;-75
2023/10/13 08:28:53;;;;;;;18.70;8.55;;;18.00;99.90;;;;;;5032882;28;20244;-75
2023/10/13 08:31:29;;;;;;;17.10;10.32;;;18.10;99.90;;;;;;5037854;28;20202;-75
2023/10/13 08:34:06;;;;;;;21.75;9.90;;;18.10;99.90;;;;;;5039357;28;20664;-75
2023/10/13 08:36:38;;;;;;;15.43;8.55;;;18.10;99.90;;;;;;5039166;28;20224;-75
2023/10/13 08:39:57;;;;;;;20.10;9.40;;;18.20;99.90;;;;;;5038366;28;20293;-75
2023/10/13 08:42:11;;;;;;;16.38;8.95;;;18.20;99.90;;;;;;5037707;28;20234;-75
2023/10/13 08:44:45;;;;;;;23.63;9.48;;;18.30;99.90;;;;;;5036856;28;20711;-74
2023/10/13 08:47:17;;;;;;;16.38;8.75;;;18.30;99.90;;;;;;5033898;28;20671;-74
2023/10/13 08:49:50;;;;;;;19.73;8.13;;;18.30;99.90;;;;;;5033185;28;20655;-74
2023/10/13 08:58:02;;;;;;;16.65;8.45;;;18.60;99.90;;;;;;5033397;28;20210;-74
2023/10/13 09:00:55;;;;;;;21.90;8.57;;;18.60;99.90;;;;;;5032820;28;20209;-74
2023/10/13 09:03:38;;;;;;;14.60;8.60;;;18.60;99.90;;;;;;5033299;28;20240;-73
2023/10/13 09:06:06;;;;;;;17.17;7.40;;;18.60;99.90;;;;;;5032727;28;20206;-74
2023/10/13 09:08:44;;;;;;;14.30;8.35;;;18.70;99.90;;;;;;5033458;28;20241;-74
2023/10/13 09:11:12;;;;;;;14.77;8.07;;;18.80;99.90;;;;;;5025791;28;20590;-74
2023/10/13 09:13:51;;;;;;;16.75;8.15;;;18.90;99.90;;;;;;5033288;28;20202;-74
2023/10/13 09:19:11;;;;;;;11.70;7.18;;;19.40;99.90;;;;;;5031858;28;20300;-74
2023/10/13 09:21:47;;;;;;;16.65;7.38;;;19.80;99.90;;;;;;5032575;28;20261;-73
2023/10/13 09:24:27;;;;;;;16.85;6.22;;;20.10;99.90;;;;;;5032688;28;20710;-74
2023/10/13 09:26:56;;;;;;;15.13;7.13;;;20.40;99.90;;;;;;5032764;28;20293;-74
2023/10/13 09:29:24;;;;;;;13.95;6.30;;;20.90;99.90;;;;;;5032366;28;20582;-74
2023/10/13 09:32:03;;;;;;;13.63;7.07;;;21.20;99.90;;;;;;5031998;28;20210;-74
2023/10/13 09:34:31;;;;;;;14.13;6.30;;;21.20;99.90;;;;;;5032624;28;20279;-74
2023/10/13 09:37:03;;;;;;;12.40;6.85;;;21.20;99.90;;;;;;5032496;28;20240;-74
2023/10/13 09:39:35;;;;;;;15.88;5.95;;;21.30;99.90;;;;;;5032256;28;20206;-74
2023/10/13 09:42:03;;;;;;;14.48;6.18;;;21.50;99.90;;;;;;5032030;28;20802;-74
2023/10/13 09:44:31;;;;;;;9.77;6.53;;;21.60;99.90;;;;;;5032065;28;20236;-74
2023/10/13 09:47:07;;;;;;;17.92;6.90;;;21.80;99.90;;;;;;5031991;28;20206;-74
2023/10/13 09:49:47;;;;;;;10.10;6.07;;;21.90;99.90;;;;;;5032070;28;20213;-74
2023/10/13 09:52:20;;;;;;;19.48;6.28;;;21.80;99.90;;;;;;5024915;28;20194;-74
2023/10/13 09:54:59;;;;;;;16.27;6.25;;;21.60;99.90;;;;;;5031746;28;20230;-74
2023/10/13 09:57:34;;;;;;;12.90;5.75;;;21.70;99.90;;;;;;5032418;28;20259;-74
2023/10/13 10:00:06;;;;;;;14.65;5.30;;;22.10;99.90;;;;;;5031803;28;20251;-74
2023/10/13 10:02:40;;;;;;;13.93;5.70;;;22.50;99.90;;;;;;5031668;28;20312;-74
2023/10/13 10:05:12;;;;;;;9.90;5.75;;;23.00;99.90;;;;;;5031505;28;20230;-74
2023/10/13 10:07:43;;;;;;;16.75;6.68;;;23.50;99.90;;;;;;5031799;28;20210;-74
2023/10/13 10:10:12;;;;;;;13.02;5.30;;;23.90;99.90;;;;;;5031734;28;20212;-74
2023/10/13 10:12:46;;;;;;;15.20;5.63;;;24.30;99.90;;;;;;5031620;28;20234;-74
2023/10/13 10:15:28;;;;;;;12.55;5.45;;;24.80;99.90;;;;;;5031064;28;20283;-74
2023/10/13 10:17:56;;;;;;;13.57;5.15;;;25.10;99.90;;;;;;5031630;28;20209;-74
2023/10/13 10:20:32;;;;;;;9.40;5.38;;;25.40;99.90;;;;;;5031049;28;20206;-74
2023/10/13 10:23:01;;;;;;;13.43;5.60;;;25.10;99.90;;;;;;5022922;28;20224;-74
2023/10/13 10:25:35;;;;;;;10.88;5.20;;;24.60;99.90;;;;;;5022525;28;20348;-74
2023/10/13 10:28:06;;;;;;;14.43;4.95;;;24.10;99.90;;;;;;5029232;28;20216;-74
2023/10/13 10:30:38;;;;;;;7.88;4.93;;;24.20;99.90;;;;;;5031413;28;20677;-74
2023/10/13 10:33:12;;;;;;;10.77;5.30;;;24.30;99.90;;;;;;5031370;28;20202;-74
2023/10/13 10:35:40;;;;;;;10.90;5.32;;;24.00;99.90;;;;;;5031318;28;20253;-74
2023/10/13 10:38:15;;;;;;;13.93;5.95;;;23.70;99.90;;;;;;5031328;28;20203;-74
2023/10/13 10:40:56;;;;;;;13.43;5.40;;;23.20;99.90;;;;;;5031039;28;20606;-74
2023/10/13 10:43:28;;;;;;;7.18;5.63;;;23.00;99.90;;;;;;5031330;28;20275;-74
2023/10/13 10:46:01;;;;;;;10.20;5.22;;;22.80;99.90;;;;;;5031149;28;20321;-74
2023/10/13 10:48:38;;;;;;;10.60;5.28;;;22.60;99.90;;;;;;5031439;28;20209;-74
2023/10/13 10:51:14;;;;;;;13.70;5.50;;;22.40;99.90;;;;;;5031080;28;20598;-74
2023/10/13 10:53:45;;;;;;;13.18;5.50;;;22.30;99.90;;;;;;5034043;28;20263;-74
2023/10/13 10:56:23;;;;;;;13.45;5.50;;;22.20;99.90;;;;;;5021624;28;20297;-74
2023/10/13 10:58:54;;;;;;;14.23;5.85;;;22.20;99.90;;;;;;5030809;28;20773;-74
2023/10/13 11:01:23;;;;;;;15.73;5.90;;;22.20;99.90;;;;;;5029385;28;20415;-74
2023/10/13 11:03:57;;;;;;;13.00;5.60;;;22.20;99.90;;;;;;5029884;28;20249;-74
2023/10/13 11:06:26;;;;;;;9.88;5.60;;;22.30;99.90;;;;;;5030374;28;20206;-74
2023/10/13 11:09:08;;;;;;;13.10;6.05;;;22.30;99.90;;;;;;5030652;28;20710;-74
2023/10/13 11:11:37;;;;;;;11.07;5.88;;;22.40;99.90;;;;;;5030076;28;20205;-74
2023/10/13 11:14:17;;;;;;;10.57;5.93;;;22.60;99.90;;;;;;5031086;28;20309;-74
2023/10/13 11:16:53;;;;;;;11.43;5.53;;;22.90;99.90;;;;;;5030195;28;20251;-74
2023/10/13 11:19:25;;;;;;;13.77;5.75;;;23.40;99.90;;;;;;5024026;28;20197;-74
2023/10/13 11:21:55;;;;;;;11.10;6.22;;;23.50;99.90;;;;;;5031084;28;20213;-74
2023/10/13 11:24:23;;;;;;;8.43;5.38;;;23.70;99.90;;;;;;5030704;28;20703;-74
2023/10/13 11:26:54;;;;;;;7.90;5.13;;;24.10;99.90;;;;;;5030646;28;20691;-74
2023/10/13 11:29:33;;;;;;;8.68;5.45;;;24.90;99.90;;;;;;5032444;28;20221;-74
2023/10/13 11:32:02;;;;;;;12.00;5.40;;;25.60;99.90;;;;;;5035085;28;20201;-74
2023/10/13 11:34:39;;;;;;;7.28;5.72;;;26.20;99.90;;;;;;5035143;28;20218;-73
2023/10/13 11:39:51;;;;;;;7.63;5.00;;;27.20;99.90;;;;;;5034997;28;20213;-74
2023/10/13 11:42:21;;;;;;;8.27;5.00;;;27.30;99.90;;;;;;5027039;28;20228;-74
2023/10/13 11:45:01;;;;;;;9.45;5.30;;;26.90;99.90;;;;;;5034215;28;20636;-74
2023/10/13 11:47:47;;;;;;;7.57;5.38;;;26.60;99.90;;;;;;5028455;28;20217;-73
2023/10/13 11:50:31;;;;;;;12.45;5.35;;;26.50;99.90;;;;;;5026203;28;20213;-74
2023/10/13 11:52:59;;;;;;;7.60;4.97;;;26.40;99.90;;;;;;5034175;28;20680;-74
2023/10/13 11:55:28;;;;;;;6.70;5.22;;;26.20;99.90;;;;;;5034086;28;20226;-74
2023/10/13 11:57:59;;;;;;;7.63;5.38;;;25.90;99.90;;;;;;5034487;28;20233;-74
2023/10/13 12:00:50;;;;;;;9.50;5.85;;;25.80;99.90;;;;;;5033974;28;20213;-74
2023/10/13 12:06:18;;;;;;;12.68;5.68;;;25.80;99.90;;;;;;5033665;28;20257;-74
2023/10/13 12:08:51;;;;;;;10.15;5.00;;;26.30;99.90;;;;;;5034451;28;20294;-74
2023/10/13 12:11:31;;;;;;;11.77;5.32;;;26.50;99.90;;;;;;5033991;28;20198;-74
2023/10/13 12:14:11;;;;;;;8.40;5.10;;;26.30;99.90;;;;;;5033824;28;20667;-74
2023/10/13 12:16:39;;;;;;;10.85;5.07;;;26.00;99.90;;;;;;5034047;28;20241;-74
2023/10/13 12:19:11;;;;;;;10.85;5.68;;;25.80;99.90;;;;;;5033930;28;20210;-74
2023/10/13 12:21:40;;;;;;;12.55;5.53;;;25.60;99.90;;;;;;5033645;28;20214;-74
2023/10/13 12:24:12;;;;;;;9.32;5.38;;;25.40;99.90;;;;;;5033688;28;20288;-74
2023/10/13 12:26:42;;;;;;;8.63;5.45;;;25.20;99.90;;;;;;5033563;28;20210;-74
2023/10/13 12:29:22;;;;;;;6.50;4.57;;;25.10;99.90;;;;;;5033801;28;20252;-74
2023/10/13 12:32:01;;;;;;;10.70;5.22;;;24.90;99.90;;;;;;5033496;28;20584;-74
2023/10/13 12:34:56;;;;;;;6.43;4.75;;;24.80;99.90;;;;;;5026804;28;20225;-74
2023/10/13 12:37:39;;;;;;;7.20;5.60;;;24.70;99.90;;;;;;5033196;28;20279;-74
2023/10/13 12:51:20;;;;;;;6.10;4.47;;;26.00;99.90;;;;;;5033403;28;20206;-73
2023/10/13 12:53:48;;;;;;;5.90;3.88;;;26.10;99.90;;;;;;5033245;28;20554;-73
2023/10/13 12:56:16;;;;;;;8.32;4.40;;;25.90;99.90;;;;;;5033460;28;20233;-73
2023/10/13 12:58:51;;;;;;;6.28;4.32;;;25.80;99.90;;;;;;5033644;28;20206;-73
2023/10/13 13:01:21;;;;;;;9.27;4.82;;;25.70;99.90;;;;;;5033414;28;20201;-73
2023/10/13 13:03:49;;;;;;;7.45;4.20;;;25.60;99.90;;;;;;5032988;28;20687;-73
2023/10/13 13:06:17;;;;;;;7.15;4.03;;;25.80;99.90;;;;;;5031377;28;20206;-73
2023/10/13 13:08:46;;;;;;;16.05;5.40;;;26.20;99.90;;;;;;5033389;28;20435;-73
2023/10/13 13:11:14;;;;;;;9.27;4.32;;;26.50;99.90;;;;;;5033220;28;20633;-73
2023/10/13 13:13:42;;;;;;;11.48;5.05;;;27.10;99.90;;;;;;5033252;28;20288;-73
2023/10/13 13:16:10;;;;;;;11.48;4.40;;;27.30;99.90;;;;;;5032752;28;20675;-73
2023/10/13 13:18:39;;;;;;;11.38;5.00;;;27.10;99.90;;;;;;5032943;28;20212;-73
2023/10/13 13:21:11;;;;;;;9.63;5.00;;;26.80;99.90;;;;;;5032448;28;20248;-73
2023/10/13 13:23:39;;;;;;;8.82;5.28;;;26.50;99.90;;;;;;5032753;28;20317;-73
2023/10/13 13:26:15;;;;;;;12.88;4.78;;;26.60;99.90;;;;;;5032903;28;20263;-73
2023/10/13 13:28:43;;;;;;;14.63;4.53;;;27.20;99.90;;;;;;5032804;28;20593;-73
2023/10/13 13:31:12;;;;;;;10.27;4.50;;;27.70;99.90;;;;;;5032550;28;20271;-73
2023/10/13 13:33:43;;;;;;;11.15;5.03;;;28.00;99.90;;;;;;5032958;28;20210;-73
2023/10/13 13:36:15;;;;;;;9.45;4.97;;;27.90;99.90;;;;;;5032493;28;20293;-74
2023/10/13 13:38:46;;;;;;;11.27;4.82;;;27.60;99.90;;;;;;5031238;28;20275;-74
2023/10/13 13:41:16;;;;;;;11.18;4.40;;;27.00;99.90;;;;;;5030261;28;20300;-74
2023/10/13 13:43:54;;;;;;;11.38;4.47;;;26.70;99.90;;;;;;5031912;28;20297;-74
2023/10/13 13:46:27;;;;;;;17.38;5.20;;;26.40;99.90;;;;;;5032421;28;20582;-74
2023/10/13 13:48:59;;;;;;;16.45;5.05;;;26.10;99.90;;;;;;5032452;28;20230;-74
2023/10/13 13:51:31;;;;;;;8.93;5.00;;;26.30;99.90;;;;;;5025011;28;20210;-74
2023/10/13 13:53:59;;;;;;;6.88;4.55;;;26.60;99.90;;;;;;5032018;28;20202;-74
2023/10/13 13:56:38;;;;;;;9.45;4.63;;;26.90;99.90;;;;;;5032189;28;20293;-74
2023/10/13 13:59:08;;;;;;;14.40;4.63;;;27.30;99.90;;;;;;5032534;28;20206;-74
2023/10/13 14:01:37;;;;;;;15.00;5.00;;;27.40;99.90;;;;;;5032121;28;20260;-74
2023/10/13 14:04:07;;;;;;;11.90;4.35;;;27.70;99.90;;;;;;5032192;28;20230;-74
2023/10/13 14:06:37;;;;;;;9.02;4.50;;;28.00;99.90;;;;;;5032090;28;20565;-74
2023/10/13 14:09:14;;;;;;;12.32;4.63;;;28.30;99.90;;;;;;5032282;28;20229;-74
2023/10/13 14:14:47;;;;;;;6.15;3.78;;;28.50;99.90;;;;;;5025080;28;20723;-74
2023/10/13 14:17:15;;;;;;;7.75;4.28;;;28.50;99.90;;;;;;5032356;28;20193;-74
2023/10/13 14:19:45;;;;;;;11.38;4.32;;;28.70;99.90;;;;;;5030436;28;20292;-74
2023/10/13 14:22:13;;;;;;;11.88;4.47;;;28.90;99.90;;;;;;5029746;28;20209;-74
2023/10/13 14:24:51;;;;;;;7.47;4.07;;;29.00;99.90;;;;;;5030979;28;20328;-75
2023/10/13 14:27:21;;;;;;;17.20;4.68;;;28.80;99.90;;;;;;5030062;28;20667;-74
2023/10/13 14:29:52;;;;;;;14.02;4.40;;;28.40;99.90;;;;;;5026461;28;20205;-74
2023/10/13 14:32:24;;;;;;;9.18;4.18;;;28.20;99.90;;;;;;5037834;28;20232;-74
2023/10/13 14:34:57;;;;;;;14.55;4.47;;;28.00;99.90;;;;;;5032413;28;20217;-74
2023/10/13 14:37:29;;;;;;;14.70;4.57;;;27.80;99.90;;;;;;5031100;28;20292;-74
2023/10/13 14:39:57;;;;;;;12.43;4.03;;;27.90;99.90;;;;;;5030115;28;20290;-74
2023/10/13 14:42:25;;;;;;;13.50;4.40;;;28.00;99.90;;;;;;5023254;28;20271;-74
2023/10/13 14:44:56;;;;;;;7.53;4.22;;;28.20;99.90;;;;;;5033249;28;20257;-75
2023/10/13 14:47:25;;;;;;;9.85;4.45;;;28.20;99.90;;;;;;5030747;28;20209;-75
2023/10/13 14:49:55;;;;;;;11.65;4.10;;;28.20;99.90;;;;;;5031178;28;20213;-75
2023/10/13 14:52:23;;;;;;;20.92;4.22;;;28.10;99.90;;;;;;5029966;28;20325;-75
2023/10/13 14:54:55;;;;;;;10.38;4.18;;;28.10;99.90;;;;;;5041389;28;20320;-75
2023/10/13 14:57:24;;;;;;;7.03;3.50;;;28.00;99.90;;;;;;5041060;28;20216;-75
2023/10/13 14:59:53;;;;;;;9.00;3.47;;;27.90;99.90;;;;;;5042888;28;20202;-75
2023/10/13 15:02:21;;;;;;;6.43;3.53;;;27.60;99.90;;;;;;5042825;28;20196;-75
2023/10/13 15:04:51;;;;;;;7.70;3.38;;;27.30;99.90;;;;;;5042903;28;20229;-75
2023/10/13 15:07:22;;;;;;;9.60;3.47;;;27.00;99.90;;;;;;5044535;28;20211;-75
2023/10/13 15:09:50;;;;;;;8.38;4.05;;;27.00;99.90;;;;;;5042300;28;20231;-76
2023/10/13 15:12:20;;;;;;;10.05;3.85;;;26.90;99.90;;;;;;5038273;28;20292;-75
2023/10/13 15:14:53;;;;;;;9.77;3.70;;;26.90;99.90;;;;;;5042376;28;20682;-75
2023/10/13 15:17:24;;;;;;;8.50;3.80;;;26.70;99.90;;;;;;5042115;28;20237;-75
2023/10/13 15:19:52;;;;;;;7.90;3.65;;;26.50;99.90;;;;;;5043609;28;20285;-76